Boomer, West Virginia
Current Conditions -  °F | °C
As of 6:54 PM on Sunday 21 Dec 2014 (Local Time) from KCRW Reporting Station
Scattered Clouds Scattered Clouds  
Wind Chill:   Ceiling: Unl
Heat Index:   Visibility: 10mi
Dew Point: -3°   Wind: 0mph
Humidity: 60%   Direction: NA
Pressure: 30.17"   Gusts: NA
Location:  38.15°N, 81.29°W
Report Text: KCRW 212354Z 00000KT 10SM SCT300 04/M03 A3017 RMK AO2 SLP224 T00391033 10078 20033 55006
Loading
Personal Weather Stations






























Interactive Weather Map New forecast layout! Learn more

10-Day Weather Forecast

Advertisements
Track Severe Weather on mobile